createdAt,value
2019-03-31T00:00:47.280Z,57.53
2019-03-31T00:03:22.166Z,57.85
2019-03-31T00:05:58.398Z,57.60
2019-03-31T00:08:33.351Z,56.45
2019-03-31T00:11:07.244Z,56.48
2019-03-31T00:13:41.171Z,55.10
2019-03-31T00:16:16.441Z,56.42
2019-03-31T00:18:50.263Z,50.08
2019-03-31T00:21:24.597Z,51.33
2019-03-31T00:23:58.505Z,50.08
2019-03-31T00:26:32.886Z,51.92
2019-03-31T00:29:07.317Z,54.67
2019-03-31T00:31:41.154Z,55.10
2019-03-31T00:34:14.914Z,55.45
2019-03-31T00:36:48.749Z,56.68
2019-03-31T00:39:22.527Z,57.20
2019-03-31T00:41:56.372Z,57.38
2019-03-31T00:44:30.131Z,55.92
2019-03-31T00:47:04.052Z,56.48
2019-03-31T00:49:37.864Z,53.00
2019-03-31T00:52:11.720Z,52.53
2019-03-31T00:54:45.549Z,55.25
2019-03-31T00:57:19.555Z,57.05
2019-03-31T00:59:53.458Z,56.25
2019-03-31T01:02:30.886Z,56.30
2019-03-31T01:05:05.259Z,56.02
2019-03-31T01:07:39.529Z,56.42
2019-03-31T01:10:13.445Z,49.88
2019-03-31T01:12:47.606Z,51.45
2019-03-31T01:15:24.183Z,50.38
2019-03-31T01:17:58.369Z,50.90
2019-03-31T01:20:33.403Z,53.30
2019-03-31T01:23:07.485Z,56.28
2019-03-31T01:25:41.725Z,53.95
2019-03-31T01:28:16.688Z,54.85
2019-03-31T01:30:51.645Z,49.80
2019-03-31T01:33:26.660Z,51.73
2019-03-31T01:36:00.706Z,51.60
2019-03-31T01:38:35.751Z,52.75
2019-03-31T01:41:13.067Z,52.53
2019-03-31T01:43:47.198Z,52.65
2019-03-31T01:46:24.948Z,53.70
2019-03-31T01:49:24.610Z,51.90
2019-03-31T01:51:59.378Z,49.85
2019-03-31T01:54:40.255Z,50.15
2019-03-31T01:57:14.909Z,44.42
2019-03-31T01:59:52.874Z,48.85
2019-03-31T02:02:51.733Z,47.20
2019-03-31T02:05:26.240Z,47.13
2019-03-31T02:08:00.203Z,51.18
2019-03-31T02:10:34.199Z,52.58
2019-03-31T02:13:08.162Z,52.30
2019-03-31T02:15:42.605Z,50.75
2019-03-31T02:18:16.598Z,52.80
2019-03-31T02:20:52.412Z,52.65
2019-03-31T02:23:26.821Z,52.75
2019-03-31T02:26:01.311Z,51.30
2019-03-31T02:28:35.207Z,52.83
2019-03-31T02:31:09.571Z,53.23
2019-03-31T02:33:43.512Z,50.23
2019-03-31T02:36:17.545Z,50.70
2019-03-31T02:38:51.518Z,43.38
2019-03-31T02:41:25.939Z,49.08
2019-03-31T02:43:59.911Z,49.25
2019-03-31T02:46:35.346Z,43.70
2019-03-31T02:49:09.433Z,47.48
2019-03-31T02:51:43.408Z,46.73
2019-03-31T02:54:17.262Z,47.43
2019-03-31T02:56:51.270Z,45.50
2019-03-31T02:59:25.239Z,47.45
2019-03-31T03:01:59.217Z,45.58
2019-03-31T03:04:33.768Z,44.93
2019-03-31T03:07:07.770Z,44.33
2019-03-31T03:09:42.798Z,43.55
2019-03-31T03:12:16.664Z,38.70
2019-03-31T03:14:51.594Z,41.18
2019-03-31T03:17:25.663Z,43.52
2019-03-31T03:19:59.589Z,41.42
2019-03-31T03:22:35.377Z,41.25
2019-03-31T03:25:10.327Z,39.45
2019-03-31T03:27:44.235Z,39.95
2019-03-31T03:30:18.400Z,37.17
2019-03-31T03:33:13.246Z,35.60
2019-03-31T03:35:32.571Z,38.08
2019-03-31T03:38:07.575Z,36.80
2019-03-31T03:40:41.486Z,41.28
2019-03-31T03:43:15.510Z,39.15
2019-03-31T03:45:49.514Z,35.65
2019-03-31T03:48:23.604Z,37.95
2019-03-31T03:50:57.605Z,37.20
2019-03-31T03:53:31.440Z,35.28
2019-03-31T03:56:05.771Z,36.13
2019-03-31T03:58:39.729Z,34.20
2019-03-31T04:01:19.291Z,37.20
2019-03-31T04:03:53.250Z,39.20
2019-03-31T04:06:27.439Z,38.88
2019-03-31T04:09:01.281Z,38.35
2019-03-31T04:11:36.311Z,41.48
2019-03-31T04:14:10.190Z,40.17
2019-03-31T04:16:43.950Z,40.08
2019-03-31T04:19:17.796Z,33.83
2019-03-31T04:21:51.619Z,37.75
2019-03-31T04:24:25.380Z,37.75
2019-03-31T04:26:59.335Z,34.30
2019-03-31T04:29:33.113Z,37.78
2019-03-31T04:32:06.993Z,35.00
2019-03-31T04:34:40.859Z,35.43
2019-03-31T04:37:14.693Z,34.45
2019-03-31T04:39:48.666Z,32.45
2019-03-31T04:42:22.479Z,27.45
2019-03-31T04:44:58.570Z,24.02
2019-03-31T04:47:32.448Z,25.55
2019-03-31T04:50:07.598Z,25.88
2019-03-31T04:52:42.700Z,24.32
2019-03-31T04:55:16.569Z,21.93
2019-03-31T04:57:50.512Z,25.37
2019-03-31T05:00:24.511Z,26.12
2019-03-31T05:02:58.493Z,25.10
2019-03-31T05:05:32.595Z,25.80
2019-03-31T05:08:06.554Z,23.83
2019-03-31T05:10:40.512Z,24.70
2019-03-31T05:13:15.808Z,24.43
2019-03-31T05:15:49.672Z,25.72
2019-03-31T05:18:23.530Z,24.40
2019-03-31T05:20:57.413Z,24.40
2019-03-31T05:23:31.328Z,22.80
2019-03-31T05:26:06.071Z,23.27
2019-03-31T05:28:39.776Z,24.02
2019-03-31T05:31:13.487Z,23.75
2019-03-31T05:33:50.780Z,23.47
2019-03-31T05:36:24.670Z,26.55
2019-03-31T05:38:58.459Z,33.00
2019-03-31T05:41:32.558Z,31.50
2019-03-31T05:44:06.523Z,26.52
2019-03-31T05:46:40.440Z,24.67
2019-03-31T05:49:14.371Z,26.80
2019-03-31T05:51:48.355Z,30.60
2019-03-31T05:54:22.222Z,30.75
2019-03-31T05:56:56.295Z,26.85
2019-03-31T05:59:30.183Z,24.57
2019-03-31T06:02:04.038Z,23.12
2019-03-31T06:04:38.967Z,24.18
2019-03-31T06:07:12.953Z,23.90
2019-03-31T06:09:47.192Z,29.15
2019-03-31T06:12:21.342Z,26.30
2019-03-31T06:14:55.364Z,25.68
2019-03-31T06:17:29.067Z,22.87
2019-03-31T06:20:03.146Z,23.12
2019-03-31T06:22:36.940Z,22.70
2019-03-31T06:25:10.635Z,21.65
2019-03-31T06:27:44.423Z,24.60
2019-03-31T06:30:18.523Z,27.27
2019-03-31T06:32:55.350Z,25.52
2019-03-31T06:35:27.684Z,22.93
2019-03-31T06:38:01.589Z,31.80
2019-03-31T06:40:36.925Z,26.85
2019-03-31T06:43:10.730Z,24.60
2019-03-31T06:45:44.492Z,22.75
2019-03-31T06:48:18.348Z,23.40
2019-03-31T06:50:52.037Z,22.02
2019-03-31T06:53:25.807Z,21.20
2019-03-31T06:55:59.519Z,21.62
2019-03-31T06:58:33.820Z,26.60
2019-03-31T07:01:07.673Z,28.87
2019-03-31T07:03:41.437Z,24.40
2019-03-31T07:06:15.319Z,26.20
2019-03-31T07:08:49.155Z,24.95
2019-03-31T07:11:22.814Z,23.75
2019-03-31T07:13:56.519Z,28.70
2019-03-31T07:16:30.299Z,25.62
2019-03-31T07:19:04.069Z,24.95
2019-03-31T07:21:37.676Z,27.73
2019-03-31T07:24:11.354Z,27.02
2019-03-31T07:26:44.983Z,25.45
2019-03-31T07:29:18.679Z,25.60
2019-03-31T07:31:52.492Z,28.55
2019-03-31T07:34:26.294Z,28.12
2019-03-31T07:37:00.009Z,27.87
2019-03-31T07:39:33.901Z,24.98
2019-03-31T07:42:08.460Z,23.15
2019-03-31T07:44:42.262Z,27.60
2019-03-31T07:47:18.594Z,27.27
2019-03-31T07:50:04.026Z,26.73
2019-03-31T07:52:38.472Z,29.18
2019-03-31T07:55:12.257Z,29.67
2019-03-31T07:57:46.027Z,27.70
2019-03-31T08:00:21.358Z,26.10
2019-03-31T08:02:55.044Z,25.88
2019-03-31T08:05:33.253Z,27.27
2019-03-31T08:08:04.141Z,27.93
2019-03-31T08:10:38.846Z,23.87
2019-03-31T08:13:12.517Z,24.30
2019-03-31T08:15:46.243Z,20.45
2019-03-31T08:18:19.984Z,21.10
2019-03-31T08:20:53.769Z,21.23
2019-03-31T08:23:27.531Z,34.75
2019-03-31T08:26:01.216Z,30.85
2019-03-31T08:28:34.995Z,23.02
2019-03-31T08:31:08.815Z,24.55
2019-03-31T08:33:42.606Z,23.57
2019-03-31T08:36:16.292Z,25.15
2019-03-31T08:38:54.489Z,22.17
2019-03-31T08:41:28.560Z,23.77
2019-03-31T08:44:02.139Z,23.67
2019-03-31T08:46:36.470Z,28.10
2019-03-31T08:49:10.200Z,27.13
2019-03-31T08:51:43.883Z,29.02
2019-03-31T08:54:17.550Z,21.33
2019-03-31T08:56:51.340Z,22.87
2019-03-31T08:59:25.133Z,21.80
2019-03-31T09:01:58.959Z,23.65
2019-03-31T09:04:32.773Z,23.18
2019-03-31T09:07:06.469Z,24.80
2019-03-31T09:09:40.137Z,28.12
2019-03-31T09:12:18.373Z,27.55
2019-03-31T09:14:52.146Z,27.13
2019-03-31T09:17:25.794Z,28.00
2019-03-31T09:19:59.464Z,25.82
2019-03-31T09:22:33.179Z,26.52
2019-03-31T09:25:07.031Z,26.12
2019-03-31T09:27:40.723Z,26.37
2019-03-31T09:30:16.249Z,23.27
2019-03-31T09:32:50.031Z,21.95
2019-03-31T09:35:23.877Z,23.15
2019-03-31T09:37:57.808Z,24.95
2019-03-31T09:40:31.426Z,26.10
2019-03-31T09:43:05.203Z,22.40
2019-03-31T09:45:38.791Z,22.20
2019-03-31T09:48:13.079Z,23.95
2019-03-31T09:50:46.838Z,24.30
2019-03-31T09:53:22.212Z,25.15
2019-03-31T09:55:55.949Z,19.52
2019-03-31T09:58:31.311Z,19.57
2019-03-31T10:01:08.007Z,19.25
2019-03-31T10:03:41.360Z,30.65
2019-03-31T10:06:29.266Z,37.70
2019-03-31T10:08:50.494Z,20.95
2019-03-31T10:11:24.223Z,55.17
2019-03-31T10:13:57.903Z,49.88
2019-03-31T10:16:32.019Z,41.15
2019-03-31T10:19:05.778Z,18.15
2019-03-31T10:21:39.400Z,24.12
2019-03-31T10:24:13.033Z,20.65
2019-03-31T10:26:46.739Z,15.93
2019-03-31T10:29:20.380Z,14.63
2019-03-31T10:31:55.040Z,14.70
2019-03-31T10:34:30.203Z,13.20
2019-03-31T10:37:03.957Z,13.95
2019-03-31T10:39:37.715Z,14.65
2019-03-31T10:42:11.357Z,16.23
2019-03-31T10:44:45.045Z,15.80
2019-03-31T10:47:18.767Z,21.15
2019-03-31T10:49:52.401Z,15.55
2019-03-31T10:52:26.017Z,21.57
2019-03-31T10:54:59.691Z,15.63
2019-03-31T10:57:33.280Z,16.90
2019-03-31T11:00:07.573Z,17.55
2019-03-31T11:02:41.317Z,19.50
2019-03-31T11:05:15.039Z,14.68
2019-03-31T11:07:48.703Z,14.35
2019-03-31T11:10:22.404Z,20.25
2019-03-31T11:12:56.133Z,18.35
2019-03-31T11:15:29.821Z,17.73
2019-03-31T11:18:03.405Z,12.82
2019-03-31T11:20:37.165Z,13.93
2019-03-31T11:23:18.912Z,13.62
2019-03-31T11:25:52.692Z,21.42
2019-03-31T11:28:27.128Z,12.75
2019-03-31T11:31:01.185Z,28.45
2019-03-31T11:33:34.833Z,24.55
2019-03-31T11:36:08.412Z,29.12
2019-03-31T11:38:41.989Z,17.12
2019-03-31T11:41:15.651Z,35.85
2019-03-31T11:43:49.205Z,19.62
2019-03-31T11:46:22.875Z,21.90
2019-03-31T11:48:56.508Z,18.07
2019-03-31T11:51:30.479Z,16.07
2019-03-31T11:54:04.180Z,13.25
2019-03-31T11:56:38.811Z,15.10
2019-03-31T11:59:12.375Z,10.95
2019-03-31T12:01:53.663Z,13.43
2019-03-31T12:04:28.677Z,18.30
2019-03-31T12:07:02.401Z,16.87
2019-03-31T12:09:37.250Z,19.27
2019-03-31T12:12:10.888Z,11.53
2019-03-31T12:14:44.452Z,12.33
2019-03-31T12:17:18.004Z,11.03
2019-03-31T12:19:51.651Z,11.68
2019-03-31T12:22:25.269Z,11.35
2019-03-31T12:24:58.920Z,9.33
2019-03-31T12:27:32.594Z,8.23
2019-03-31T12:30:08.721Z,10.38
2019-03-31T12:32:42.394Z,14.15
2019-03-31T12:35:15.971Z,12.70
2019-03-31T12:37:49.668Z,13.03
2019-03-31T12:40:37.035Z,10.35
2019-03-31T12:43:10.755Z,19.87
2019-03-31T12:45:48.735Z,19.55
2019-03-31T12:48:22.529Z,21.90
2019-03-31T12:50:58.103Z,19.30
2019-03-31T12:53:31.988Z,28.60
2019-03-31T12:56:05.684Z,10.55
2019-03-31T12:58:39.527Z,9.80
2019-03-31T13:01:13.283Z,8.98
2019-03-31T13:03:47.013Z,7.75
2019-03-31T13:06:20.780Z,15.13
2019-03-31T13:08:55.603Z,23.60
2019-03-31T13:11:29.452Z,16.93
2019-03-31T13:14:03.755Z,19.95
2019-03-31T13:16:38.601Z,13.22
2019-03-31T13:19:12.577Z,15.30
2019-03-31T13:21:46.534Z,6.92
2019-03-31T13:24:20.455Z,26.12
2019-03-31T13:26:54.411Z,17.27
2019-03-31T13:29:28.422Z,50.60
2019-03-31T13:32:02.394Z,34.88
2019-03-31T13:34:36.420Z,10.20
2019-03-31T13:37:10.328Z,9.93
2019-03-31T13:39:44.010Z,11.70
2019-03-31T13:42:17.689Z,8.13
2019-03-31T13:44:51.492Z,12.40
2019-03-31T13:47:25.173Z,11.78
2019-03-31T13:49:58.842Z,12.85
2019-03-31T13:52:32.512Z,18.87
2019-03-31T13:55:06.461Z,10.53
2019-03-31T13:57:42.253Z,10.00
2019-03-31T14:00:25.025Z,13.55
2019-03-31T14:02:55.815Z,13.32
2019-03-31T14:05:29.482Z,28.27
2019-03-31T14:08:24.672Z,13.62
2019-03-31T14:10:45.765Z,49.53
2019-03-31T14:13:19.563Z,29.57
2019-03-31T14:15:53.212Z,22.15
2019-03-31T14:18:26.771Z,13.43
2019-03-31T14:21:00.330Z,21.17
2019-03-31T14:23:33.906Z,22.13
2019-03-31T14:26:07.469Z,20.10
2019-03-31T14:28:41.265Z,20.82
2019-03-31T14:31:22.965Z,16.77
2019-03-31T14:33:58.907Z,18.10
2019-03-31T14:36:34.606Z,25.97
2019-03-31T14:39:10.707Z,13.95
2019-03-31T14:41:44.411Z,18.07
2019-03-31T14:44:17.994Z,17.32
2019-03-31T14:46:51.781Z,21.62
2019-03-31T14:49:26.028Z,17.80
2019-03-31T14:52:01.482Z,28.20
2019-03-31T14:54:35.291Z,16.02
2019-03-31T14:57:08.902Z,8.70
2019-03-31T14:59:42.488Z,14.15
2019-03-31T15:02:16.173Z,13.13
2019-03-31T15:04:50.219Z,15.63
2019-03-31T15:07:25.567Z,13.25
2019-03-31T15:10:01.386Z,10.00
2019-03-31T15:12:40.114Z,7.40
2019-03-31T15:15:15.400Z,8.93
2019-03-31T15:17:48.983Z,8.63
2019-03-31T15:20:22.751Z,13.22
2019-03-31T15:22:56.478Z,16.87
2019-03-31T15:25:30.212Z,12.50
2019-03-31T15:28:04.143Z,17.57
2019-03-31T15:30:37.877Z,15.90
2019-03-31T15:33:11.722Z,21.35
2019-03-31T15:35:45.407Z,13.00
2019-03-31T15:38:18.997Z,8.45
2019-03-31T15:40:52.971Z,12.07
2019-03-31T15:43:26.676Z,11.55
2019-03-31T15:46:00.420Z,9.98
2019-03-31T15:48:34.160Z,16.93
2019-03-31T15:51:15.439Z,20.23
2019-03-31T15:53:49.110Z,13.85
2019-03-31T15:56:23.864Z,15.03
2019-03-31T15:58:57.540Z,14.45
2019-03-31T16:01:31.166Z,11.30
2019-03-31T16:04:04.870Z,9.85
2019-03-31T16:06:39.600Z,12.15
2019-03-31T16:09:23.349Z,10.45
2019-03-31T16:11:53.616Z,18.55
2019-03-31T16:14:21.583Z,10.30
2019-03-31T16:16:54.487Z,8.58
2019-03-31T16:19:27.326Z,12.33
2019-03-31T16:22:00.139Z,24.10
2019-03-31T16:24:39.077Z,20.95
2019-03-31T16:27:11.919Z,37.70
2019-03-31T16:29:44.952Z,138.55
2019-03-31T16:32:17.855Z,119.00
2019-03-31T16:34:50.792Z,129.10
2019-03-31T16:37:23.618Z,27.25
2019-03-31T16:39:56.450Z,26.97
2019-03-31T16:42:29.273Z,30.08
2019-03-31T16:45:03.757Z,16.15
2019-03-31T16:47:36.654Z,21.23
2019-03-31T16:50:09.577Z,13.75
2019-03-31T16:52:42.392Z,18.02
2019-03-31T16:55:15.153Z,20.55
2019-03-31T16:57:47.897Z,13.00
2019-03-31T17:00:20.777Z,18.07
2019-03-31T17:02:53.594Z,39.38
2019-03-31T17:05:26.429Z,138.80
2019-03-31T17:07:59.622Z,60.30
2019-03-31T17:10:32.561Z,47.13
2019-03-31T17:13:05.291Z,70.28
2019-03-31T17:15:38.081Z,93.10
2019-03-31T17:18:10.918Z,221.82
2019-03-31T17:20:43.772Z,123.20
2019-03-31T17:23:16.532Z,173.97
2019-03-31T17:25:49.406Z,66.60
2019-03-31T17:28:22.338Z,49.85
2019-03-31T17:30:55.192Z,61.33
2019-03-31T17:33:30.277Z,63.98
2019-03-31T17:36:02.423Z,43.58
2019-03-31T17:38:35.327Z,12.70
2019-03-31T17:41:08.227Z,16.60
2019-03-31T17:43:41.063Z,12.28
2019-03-31T17:46:13.900Z,10.25
2019-03-31T17:48:46.645Z,10.95
2019-03-31T17:51:19.493Z,12.30
2019-03-31T17:53:52.318Z,9.70
2019-03-31T17:56:25.653Z,12.37
2019-03-31T17:58:58.550Z,11.95
2019-03-31T18:01:31.534Z,9.43
2019-03-31T18:04:04.335Z,7.25
2019-03-31T18:06:37.253Z,7.22
2019-03-31T18:09:10.655Z,7.15
2019-03-31T18:11:43.439Z,5.58
2019-03-31T18:14:16.207Z,4.90
2019-03-31T18:16:49.058Z,7.12
2019-03-31T18:19:24.540Z,9.33
2019-03-31T18:21:58.067Z,9.80
2019-03-31T18:24:31.139Z,9.13
2019-03-31T18:27:05.204Z,7.87
2019-03-31T18:29:39.731Z,7.85
2019-03-31T18:32:12.763Z,6.00
2019-03-31T18:34:45.677Z,12.63
2019-03-31T18:37:18.552Z,14.73
2019-03-31T18:39:51.449Z,8.73
2019-03-31T18:42:24.275Z,8.55
2019-03-31T18:44:57.228Z,7.28
2019-03-31T18:47:30.073Z,6.20
2019-03-31T18:50:02.950Z,5.58
2019-03-31T18:52:35.881Z,12.58
2019-03-31T18:55:30.206Z,10.45
2019-03-31T18:58:31.334Z,8.25
2019-03-31T19:01:21.721Z,4.53
2019-03-31T19:04:13.336Z,5.85
2019-03-31T19:07:18.090Z,4.83
2019-03-31T19:10:02.376Z,4.80
2019-03-31T19:12:50.537Z,5.72
2019-03-31T19:15:37.012Z,7.90
2019-03-31T19:18:21.108Z,12.18
2019-03-31T19:21:31.059Z,14.47
2019-03-31T19:24:38.831Z,14.73
2019-03-31T19:27:41.188Z,7.60
2019-03-31T19:30:45.418Z,20.57
2019-03-31T19:33:29.114Z,16.42
2019-03-31T19:36:23.824Z,9.55
2019-03-31T19:39:15.587Z,5.97
2019-03-31T19:42:01.634Z,7.55
2019-03-31T19:44:53.289Z,5.60
2019-03-31T19:47:44.911Z,6.47
2019-03-31T19:50:49.787Z,4.85
2019-03-31T19:53:41.525Z,7.80
2019-03-31T19:56:31.508Z,14.43
2019-03-31T19:59:21.957Z,14.58
2019-03-31T20:02:17.111Z,12.35
2019-03-31T20:05:02.225Z,15.95
2019-03-31T20:07:53.044Z,48.40
2019-03-31T20:10:43.745Z,13.55
2019-03-31T20:13:44.687Z,36.60
2019-03-31T20:16:35.064Z,30.35
2019-03-31T20:19:27.592Z,34.08
2019-03-31T20:22:11.365Z,32.98
2019-03-31T20:25:06.232Z,22.82
2019-03-31T20:28:07.116Z,39.23
2019-03-31T20:30:46.681Z,22.70
2019-03-31T20:33:44.174Z,17.70
2019-03-31T20:36:48.064Z,10.90
2019-03-31T20:39:56.437Z,11.93
2019-03-31T20:42:41.102Z,11.03
2019-03-31T20:45:14.008Z,9.10
2019-03-31T20:47:48.113Z,6.87
2019-03-31T20:50:24.942Z,5.87
2019-03-31T20:52:57.854Z,6.60
2019-03-31T20:55:30.661Z,6.75
2019-03-31T20:58:03.745Z,6.87
2019-03-31T21:00:36.557Z,7.85
2019-03-31T21:03:09.494Z,9.23
2019-03-31T21:05:42.602Z,8.18
2019-03-31T21:08:15.524Z,8.05
2019-03-31T21:10:48.402Z,5.37
2019-03-31T21:13:22.387Z,6.45
2019-03-31T21:15:55.639Z,5.65
2019-03-31T21:18:28.468Z,5.40
2019-03-31T21:21:01.323Z,5.80
2019-03-31T21:23:34.601Z,5.17
2019-03-31T21:26:07.494Z,5.20
2019-03-31T21:28:41.533Z,5.22
2019-03-31T21:31:14.710Z,5.30
2019-03-31T21:33:47.669Z,5.72
2019-03-31T21:36:20.553Z,4.72
2019-03-31T21:38:53.501Z,5.05
2019-03-31T21:41:27.338Z,4.35
2019-03-31T21:44:00.218Z,4.72
2019-03-31T21:46:32.961Z,4.72
2019-03-31T21:49:05.831Z,4.78
2019-03-31T21:51:38.719Z,4.80
2019-03-31T21:54:12.599Z,4.75
2019-03-31T21:56:45.475Z,6.45
2019-03-31T21:59:18.280Z,6.17
2019-03-31T22:01:51.008Z,6.80
2019-03-31T22:04:23.912Z,8.80
2019-03-31T22:06:56.793Z,8.80
2019-03-31T22:09:29.612Z,10.85
2019-03-31T22:12:02.334Z,8.40
2019-03-31T22:14:36.542Z,8.38
2019-03-31T22:17:09.257Z,9.08
2019-03-31T22:19:42.001Z,7.25
2019-03-31T22:22:14.819Z,5.83
2019-03-31T22:24:48.730Z,6.97
2019-03-31T22:27:21.594Z,11.35
2019-03-31T22:29:54.636Z,13.18
2019-03-31T22:32:28.524Z,8.08
2019-03-31T22:35:01.374Z,7.83
2019-03-31T22:37:34.361Z,7.22
2019-03-31T22:40:07.340Z,5.70
2019-03-31T22:42:40.202Z,6.08
2019-03-31T22:45:14.449Z,5.28
2019-03-31T22:47:47.336Z,5.72
2019-03-31T22:50:20.549Z,5.90
2019-03-31T22:52:54.353Z,5.97
2019-03-31T22:55:27.165Z,5.80
2019-03-31T22:58:00.027Z,6.80
2019-03-31T23:00:32.835Z,5.85
2019-03-31T23:03:05.697Z,5.08
2019-03-31T23:05:38.528Z,4.45
2019-03-31T23:08:11.395Z,4.70
2019-03-31T23:10:44.618Z,4.85
2019-03-31T23:13:17.342Z,5.25
2019-03-31T23:15:50.260Z,5.10
2019-03-31T23:18:23.144Z,4.65
2019-03-31T23:20:56.963Z,4.72
2019-03-31T23:23:30.114Z,4.25
2019-03-31T23:26:02.962Z,4.65
2019-03-31T23:28:37.519Z,4.03
2019-03-31T23:31:10.257Z,3.87
2019-03-31T23:33:43.016Z,4.95
2019-03-31T23:36:15.780Z,4.47
2019-03-31T23:38:48.828Z,5.35
2019-03-31T23:41:21.598Z,6.37
2019-03-31T23:43:54.404Z,7.58
2019-03-31T23:46:27.938Z,8.20
2019-03-31T23:49:00.740Z,8.95
2019-03-31T23:51:33.592Z,8.80
2019-03-31T23:54:06.426Z,8.80
2019-03-31T23:56:40.255Z,7.28
2019-03-31T23:59:13.058Z,6.78
